createdAt,value
2018-11-21T00:00:46.046Z,0.05
2018-11-21T00:01:46.602Z,0.05
2018-11-21T00:02:47.373Z,0.05
2018-11-21T00:03:47.017Z,0.05
2018-11-21T00:04:48.716Z,0.05
2018-11-21T00:05:49.103Z,0.05
2018-11-21T00:06:49.822Z,0.05
2018-11-21T00:07:50.240Z,0.05
2018-11-21T00:08:50.784Z,0.05
2018-11-21T00:09:51.334Z,0.05
2018-11-21T00:10:50.695Z,0.05
2018-11-21T00:11:53.999Z,0.05
2018-11-21T00:12:51.472Z,0.05
2018-11-21T00:13:53.011Z,0.05
2018-11-21T00:14:53.568Z,0.05
2018-11-21T00:15:54.347Z,0.05
2018-11-21T00:16:54.811Z,0.05
2018-11-21T00:17:55.176Z,0.05
2018-11-21T00:19:00.683Z,0.00
2018-11-21T00:19:57.642Z,0.00
2018-11-21T00:20:55.732Z,0.00
2018-11-21T00:21:56.538Z,0.00
2018-11-21T00:22:58.491Z,0.00
2018-11-21T00:23:58.384Z,0.00
2018-11-21T00:24:58.773Z,0.00
2018-11-21T00:26:00.435Z,0.00
2018-11-21T00:26:59.916Z,0.00
2018-11-21T00:28:01.301Z,0.00
2018-11-21T00:29:02.001Z,0.00
2018-11-21T00:30:02.363Z,0.00
2018-11-21T00:31:02.788Z,0.00
2018-11-21T00:32:03.443Z,0.00
2018-11-21T00:33:04.211Z,0.00
2018-11-21T00:34:04.626Z,0.00
2018-11-21T00:35:05.107Z,0.00
2018-11-21T00:36:04.616Z,0.00
2018-11-21T00:37:06.308Z,0.00
2018-11-21T00:38:05.772Z,0.00
2018-11-21T00:39:06.239Z,0.00
2018-11-21T00:40:07.701Z,0.00
2018-11-21T00:41:08.657Z,0.00
2018-11-21T00:42:09.279Z,0.00
2018-11-21T00:43:08.813Z,0.00
2018-11-21T00:44:09.272Z,0.00
2018-11-21T00:45:11.113Z,0.00
2018-11-21T00:46:10.567Z,0.00
2018-11-21T00:47:11.898Z,0.00
2018-11-21T00:47:20.173Z,0.00
2018-11-21T00:48:20.904Z,0.00
2018-11-21T00:49:22.622Z,0.00
2018-11-21T00:50:23.257Z,0.00
2018-11-21T00:51:22.962Z,0.00
2018-11-21T00:52:24.505Z,0.00
2018-11-21T00:53:24.966Z,0.00
2018-11-21T00:54:25.603Z,0.00
2018-11-21T00:55:25.945Z,0.00
2018-11-21T00:56:26.454Z,0.00
2018-11-21T00:57:27.008Z,0.00
2018-11-21T00:58:27.521Z,0.00
2018-11-21T00:59:27.946Z,0.00
2018-11-21T01:00:28.353Z,0.00
2018-11-21T01:01:28.968Z,0.00
2018-11-21T01:02:29.899Z,0.00
2018-11-21T01:03:30.734Z,0.05
2018-11-21T01:04:31.127Z,0.05
2018-11-21T01:05:30.594Z,0.05
2018-11-21T01:06:32.068Z,0.00
2018-11-21T01:07:32.560Z,0.00
2018-11-21T01:08:33.199Z,0.00
2018-11-21T01:09:33.685Z,0.00
2018-11-21T01:10:34.409Z,0.00
2018-11-21T01:11:34.862Z,0.00
2018-11-21T01:12:35.423Z,0.00
2018-11-21T01:13:35.940Z,0.00
2018-11-21T01:14:36.358Z,0.00
2018-11-21T01:15:36.970Z,0.00
2018-11-21T01:16:37.394Z,0.00
2018-11-21T01:17:38.029Z,0.00
2018-11-21T01:18:38.483Z,0.00
2018-11-21T01:19:39.392Z,0.00
2018-11-21T01:20:39.825Z,0.00
2018-11-21T01:21:40.731Z,0.00
2018-11-21T01:22:40.263Z,0.00
2018-11-21T01:23:41.849Z,0.00
2018-11-21T01:24:42.309Z,0.00
2018-11-21T01:25:42.935Z,0.00
2018-11-21T01:26:42.580Z,0.00
2018-11-21T01:27:44.086Z,0.00
2018-11-21T01:28:43.551Z,0.00
2018-11-21T01:29:45.016Z,0.00
2018-11-21T01:30:45.670Z,0.00
2018-11-21T01:31:46.263Z,0.00
2018-11-21T01:32:45.506Z,0.00
2018-11-21T01:33:46.831Z,0.00
2018-11-21T01:34:47.510Z,0.00
2018-11-21T01:35:47.937Z,0.00
2018-11-21T01:35:58.030Z,0.00
2018-11-21T01:36:59.441Z,0.00
2018-11-21T01:37:59.987Z,0.00
2018-11-21T01:39:00.446Z,0.00
2018-11-21T01:40:01.075Z,0.00
2018-11-21T01:41:01.519Z,0.00
2018-11-21T01:42:00.936Z,0.00
2018-11-21T01:43:01.970Z,0.00
2018-11-21T01:44:02.394Z,0.00
2018-11-21T01:45:02.832Z,0.00
2018-11-21T01:46:03.315Z,0.00
2018-11-21T01:47:03.676Z,0.00
2018-11-21T01:48:04.012Z,0.00
2018-11-21T01:49:04.761Z,0.00
2018-11-21T01:50:04.409Z,0.00
2018-11-21T01:51:05.802Z,0.00
2018-11-21T01:52:06.464Z,0.00
2018-11-21T01:53:07.334Z,0.00
2018-11-21T01:54:07.689Z,0.00
2018-11-21T01:55:08.383Z,0.00
2018-11-21T01:56:08.890Z,0.00
2018-11-21T01:57:09.170Z,0.00
2018-11-21T01:58:09.849Z,0.00
2018-11-21T01:59:10.218Z,0.00
2018-11-21T02:00:10.719Z,0.00
2018-11-21T02:01:11.121Z,0.00
2018-11-21T02:02:11.787Z,0.00
2018-11-21T02:03:12.665Z,0.00
2018-11-21T02:04:13.282Z,0.00
2018-11-21T02:05:12.607Z,0.00
2018-11-21T02:06:14.287Z,0.00
2018-11-21T02:07:15.121Z,0.00
2018-11-21T02:08:14.586Z,0.00
2018-11-21T02:09:15.003Z,0.00
2018-11-21T02:10:16.921Z,0.00
2018-11-21T02:11:17.447Z,0.00
2018-11-21T02:12:17.941Z,0.00
2018-11-21T02:13:18.436Z,0.00
2018-11-21T02:14:19.012Z,0.00
2018-11-21T02:15:19.844Z,0.00
2018-11-21T02:16:18.913Z,0.00
2018-11-21T02:17:20.425Z,0.00
2018-11-21T02:18:20.712Z,0.00
2018-11-21T02:19:21.241Z,0.00
2018-11-21T02:20:21.702Z,0.00
2018-11-21T02:21:22.109Z,0.00
2018-11-21T02:22:22.672Z,0.00
2018-11-21T02:23:23.008Z,0.00
2018-11-21T02:24:23.540Z,0.00
2018-11-21T02:25:24.523Z,0.00
2018-11-21T02:25:35.628Z,0.00
2018-11-21T02:26:37.110Z,0.00
2018-11-21T02:27:37.824Z,0.00
2018-11-21T02:28:38.257Z,0.00
2018-11-21T02:29:38.766Z,0.00
2018-11-21T02:30:39.592Z,0.00
2018-11-21T02:31:40.236Z,0.00
2018-11-21T02:32:40.537Z,0.00
2018-11-21T02:33:41.068Z,0.00
2018-11-21T02:34:41.383Z,0.00
2018-11-21T02:35:41.748Z,0.00
2018-11-21T02:36:41.297Z,0.00
2018-11-21T02:37:42.844Z,0.00
2018-11-21T02:38:43.722Z,0.00
2018-11-21T02:39:42.991Z,0.00
2018-11-21T02:40:44.429Z,0.00
2018-11-21T02:41:44.852Z,0.00
2018-11-21T02:42:45.346Z,0.00
2018-11-21T02:43:45.736Z,0.00
2018-11-21T02:44:45.886Z,0.00
2018-11-21T02:45:46.219Z,0.00
2018-11-21T02:46:46.906Z,0.00
2018-11-21T02:47:47.268Z,0.00
2018-11-21T02:48:47.864Z,0.00
2018-11-21T02:49:48.230Z,0.00
2018-11-21T02:50:48.591Z,0.00
2018-11-21T02:51:48.962Z,0.00
2018-11-21T02:52:49.422Z,0.00
2018-11-21T02:53:49.850Z,0.00
2018-11-21T02:54:50.231Z,0.00
2018-11-21T02:55:50.534Z,0.00
2018-11-21T02:56:50.934Z,0.00
2018-11-21T02:57:51.377Z,0.00
2018-11-21T02:58:51.713Z,0.00
2018-11-21T02:59:52.470Z,0.00
2018-11-21T03:00:52.827Z,0.00
2018-11-21T03:01:53.317Z,0.00
2018-11-21T03:02:53.653Z,0.00
2018-11-21T03:03:54.108Z,0.00
2018-11-21T03:04:54.424Z,0.00
2018-11-21T03:05:54.867Z,0.00
2018-11-21T03:06:55.186Z,0.00
2018-11-21T03:07:55.563Z,0.00
2018-11-21T03:08:55.969Z,0.00
2018-11-21T03:09:56.332Z,0.00
2018-11-21T03:10:56.699Z,0.00
2018-11-21T03:11:57.157Z,0.00
2018-11-21T03:12:05.441Z,0.00
2018-11-21T03:13:06.868Z,0.00
2018-11-21T03:14:07.280Z,0.00
2018-11-21T03:15:07.576Z,0.00
2018-11-21T03:16:07.975Z,0.00
2018-11-21T03:17:08.458Z,0.00
2018-11-21T03:18:08.807Z,0.00
2018-11-21T03:19:09.209Z,0.00
2018-11-21T03:20:09.742Z,0.00
2018-11-21T03:21:10.272Z,0.00
2018-11-21T03:22:10.854Z,0.00
2018-11-21T03:23:11.411Z,0.00
2018-11-21T03:24:12.075Z,0.00
2018-11-21T03:25:12.464Z,0.00
2018-11-21T03:26:12.956Z,0.00
2018-11-21T03:27:13.377Z,0.00
2018-11-21T03:28:13.839Z,0.00
2018-11-21T03:29:14.551Z,0.00
2018-11-21T03:30:14.893Z,0.00
2018-11-21T03:31:15.440Z,0.00
2018-11-21T03:32:15.850Z,0.00
2018-11-21T03:33:16.165Z,0.00
2018-11-21T03:34:16.556Z,0.00
2018-11-21T03:35:17.388Z,0.00
2018-11-21T03:36:17.865Z,0.00
2018-11-21T03:37:18.141Z,0.00
2018-11-21T03:38:18.474Z,0.00
2018-11-21T03:39:18.886Z,0.00
2018-11-21T03:40:19.340Z,0.00
2018-11-21T03:41:19.888Z,0.00
2018-11-21T03:42:20.190Z,0.00
2018-11-21T03:43:20.559Z,0.00
2018-11-21T03:44:20.906Z,0.00
2018-11-21T03:45:21.401Z,0.00
2018-11-21T03:46:21.727Z,0.00
2018-11-21T03:47:22.143Z,0.00
2018-11-21T03:48:22.867Z,0.00
2018-11-21T03:49:23.429Z,0.00
2018-11-21T03:50:23.825Z,0.00
2018-11-21T03:51:24.229Z,0.00
2018-11-21T03:52:24.939Z,0.00
2018-11-21T03:53:25.252Z,0.00
2018-11-21T03:54:25.605Z,0.00
2018-11-21T03:55:26.002Z,0.00
2018-11-21T03:56:26.477Z,0.00
2018-11-21T03:56:34.943Z,0.00
2018-11-21T03:57:36.289Z,0.00
2018-11-21T03:58:36.536Z,0.00
2018-11-21T03:59:37.020Z,0.00
2018-11-21T04:00:37.328Z,0.00
2018-11-21T04:01:37.765Z,0.00
2018-11-21T04:02:38.328Z,0.00
2018-11-21T04:03:38.807Z,0.00
2018-11-21T04:04:39.272Z,0.00
2018-11-21T04:05:39.641Z,0.00
2018-11-21T04:06:39.995Z,0.00
2018-11-21T04:07:40.534Z,0.00
2018-11-21T04:08:42.714Z,0.00
2018-11-21T04:09:40.345Z,0.00
2018-11-21T04:10:41.711Z,0.00
2018-11-21T04:11:42.288Z,0.00
2018-11-21T04:12:42.619Z,0.00
2018-11-21T04:13:43.033Z,0.00
2018-11-21T04:14:43.436Z,0.00
2018-11-21T04:15:43.857Z,0.00
2018-11-21T04:16:44.238Z,0.00
2018-11-21T04:17:44.566Z,0.00
2018-11-21T04:18:44.886Z,0.00
2018-11-21T04:19:45.197Z,0.00
2018-11-21T04:20:45.617Z,0.00
2018-11-21T04:21:45.956Z,0.00
2018-11-21T04:22:46.321Z,0.00
2018-11-21T04:23:46.410Z,0.00
2018-11-21T04:24:46.732Z,0.00
2018-11-21T04:25:47.147Z,0.00
2018-11-21T04:26:47.982Z,0.00
2018-11-21T04:27:48.404Z,0.00
2018-11-21T04:28:48.849Z,0.00
2018-11-21T04:29:49.296Z,0.00
2018-11-21T04:30:49.918Z,0.00
2018-11-21T04:31:50.226Z,0.00
2018-11-21T04:32:50.651Z,0.00
2018-11-21T04:33:51.136Z,0.00
2018-11-21T04:34:51.468Z,0.00
2018-11-21T04:35:52.008Z,0.00
2018-11-21T04:36:52.460Z,0.00
2018-11-21T04:37:52.752Z,0.00
2018-11-21T04:38:53.383Z,0.00
2018-11-21T04:39:53.776Z,0.00
2018-11-21T04:40:54.059Z,0.00
2018-11-21T04:41:04.062Z,0.00
2018-11-21T04:42:05.505Z,0.00
2018-11-21T04:43:06.349Z,0.00
2018-11-21T04:44:06.768Z,0.00
2018-11-21T04:45:07.197Z,0.00
2018-11-21T04:46:07.760Z,0.00
2018-11-21T04:47:08.561Z,0.00
2018-11-21T04:48:08.871Z,0.00
2018-11-21T04:49:09.417Z,0.00
2018-11-21T04:50:09.674Z,0.00
2018-11-21T04:51:10.009Z,0.00
2018-11-21T04:52:10.275Z,0.00
2018-11-21T04:53:10.293Z,0.00
2018-11-21T04:54:10.597Z,0.00
2018-11-21T04:55:11.082Z,0.00
2018-11-21T04:56:11.472Z,0.00
2018-11-21T04:57:11.817Z,0.00
2018-11-21T04:58:12.301Z,0.00
2018-11-21T04:59:12.687Z,0.00
2018-11-21T05:00:13.120Z,0.00
2018-11-21T05:01:13.632Z,0.00
2018-11-21T05:02:14.091Z,0.00
2018-11-21T05:03:14.622Z,0.00
2018-11-21T05:04:15.287Z,0.00
2018-11-21T05:05:15.730Z,0.00
2018-11-21T05:06:16.240Z,0.00
2018-11-21T05:07:16.657Z,0.00
2018-11-21T05:08:17.092Z,0.00
2018-11-21T05:09:17.461Z,0.00
2018-11-21T05:10:17.782Z,0.00
2018-11-21T05:11:18.116Z,0.00
2018-11-21T05:12:18.571Z,0.00
2018-11-21T05:13:19.157Z,0.00
2018-11-21T05:14:19.511Z,0.00
2018-11-21T05:15:19.829Z,0.00
2018-11-21T05:16:20.480Z,0.00
2018-11-21T05:17:20.343Z,0.00
2018-11-21T05:18:21.899Z,0.00
2018-11-21T05:19:22.238Z,0.00
2018-11-21T05:20:22.646Z,0.00
2018-11-21T05:21:23.097Z,0.00
2018-11-21T05:22:23.490Z,0.00
2018-11-21T05:23:23.861Z,0.00
2018-11-21T05:24:24.268Z,0.00
2018-11-21T05:25:24.676Z,0.00
2018-11-21T05:25:33.622Z,0.00
2018-11-21T05:26:34.062Z,0.00
2018-11-21T05:27:34.327Z,0.00
2018-11-21T05:28:34.644Z,0.00
2018-11-21T05:29:34.984Z,0.00
2018-11-21T05:30:35.263Z,0.00
2018-11-21T05:31:35.609Z,0.00
2018-11-21T05:32:36.053Z,0.00
2018-11-21T05:33:36.341Z,0.00
2018-11-21T05:34:36.601Z,0.00
2018-11-21T05:35:37.081Z,0.00
2018-11-21T05:36:36.378Z,0.00
2018-11-21T05:37:38.229Z,0.00
2018-11-21T05:38:38.564Z,0.00
2018-11-21T05:39:38.882Z,0.00
2018-11-21T05:40:39.501Z,0.00
2018-11-21T05:41:39.929Z,0.00
2018-11-21T05:42:40.697Z,0.00
2018-11-21T05:43:40.998Z,0.00
2018-11-21T05:44:41.256Z,0.00
2018-11-21T05:45:41.626Z,0.00
2018-11-21T05:46:42.044Z,0.00
2018-11-21T05:47:42.581Z,0.00
2018-11-21T05:48:43.174Z,0.00
2018-11-21T05:49:44.023Z,0.00
2018-11-21T05:50:44.825Z,0.00
2018-11-21T05:51:45.221Z,0.00
2018-11-21T05:52:45.679Z,0.00
2018-11-21T05:53:46.037Z,0.05
2018-11-21T05:54:46.397Z,0.05
2018-11-21T05:55:46.804Z,0.05
2018-11-21T05:56:47.422Z,0.05
2018-11-21T05:57:48.264Z,0.05
2018-11-21T05:58:48.993Z,0.05
2018-11-21T05:59:49.358Z,0.05
2018-11-21T06:00:49.920Z,0.09
2018-11-21T06:01:50.404Z,0.09
2018-11-21T06:02:50.810Z,0.09
2018-11-21T06:03:51.172Z,0.14
2018-11-21T06:04:51.625Z,0.18
2018-11-21T06:05:52.159Z,0.18
2018-11-21T06:06:52.503Z,0.22
2018-11-21T06:07:52.933Z,0.22
2018-11-21T06:08:53.756Z,0.27
2018-11-21T06:09:54.064Z,0.27
2018-11-21T06:10:02.443Z,0.31
2018-11-21T06:11:03.772Z,0.41
2018-11-21T06:12:04.553Z,0.45
2018-11-21T06:13:03.906Z,0.50
2018-11-21T06:14:05.675Z,0.58
2018-11-21T06:15:06.057Z,0.68
2018-11-21T06:16:06.657Z,0.86
2018-11-21T06:17:09.799Z,0.99
2018-11-21T06:18:07.214Z,1.12
2018-11-21T06:19:07.626Z,1.35
2018-11-21T06:20:07.947Z,1.53
2018-11-21T06:21:08.341Z,1.75
2018-11-21T06:22:08.677Z,1.98
2018-11-21T06:23:09.464Z,2.38
2018-11-21T06:24:10.875Z,2.92
2018-11-21T06:25:10.239Z,3.56
2018-11-21T06:26:10.720Z,4.28
2018-11-21T06:27:11.242Z,5.31
2018-11-21T06:28:11.013Z,6.66
2018-11-21T06:29:12.436Z,8.10
2018-11-21T06:30:12.759Z,9.63
2018-11-21T06:31:13.190Z,11.79
2018-11-21T06:32:13.752Z,13.95
2018-11-21T06:33:13.119Z,16.47
2018-11-21T06:34:14.644Z,19.44
2018-11-21T06:35:15.215Z,22.86
2018-11-21T06:36:15.896Z,26.46
2018-11-21T06:37:16.328Z,30.60
2018-11-21T06:38:17.288Z,35.10
2018-11-21T06:39:18.217Z,41.58
2018-11-21T06:40:17.268Z,47.16
2018-11-21T06:41:18.770Z,54.00
2018-11-21T06:42:19.275Z,60.12
2018-11-21T06:43:20.068Z,69.84
2018-11-21T06:44:20.508Z,76.32
2018-11-21T06:45:20.856Z,88.56
2018-11-21T06:46:21.240Z,97.20
2018-11-21T06:47:21.648Z,110.16
2018-11-21T06:48:22.124Z,122.40
2018-11-21T06:49:22.535Z,133.20
2018-11-21T06:50:23.115Z,144.00
2018-11-21T06:51:23.535Z,156.96
2018-11-21T06:52:23.959Z,167.76
2018-11-21T06:53:24.565Z,184.32
2018-11-21T06:54:25.202Z,200.16
2018-11-21T06:55:25.617Z,214.56
2018-11-21T06:56:26.077Z,234.72
2018-11-21T06:57:26.434Z,252.00
2018-11-21T06:57:36.370Z,256.32
2018-11-21T06:58:37.710Z,267.84
2018-11-21T06:59:38.543Z,289.44
2018-11-21T07:00:38.868Z,303.84
2018-11-21T07:01:39.388Z,328.32
2018-11-21T07:02:39.998Z,344.16
2018-11-21T07:03:40.482Z,362.88
2018-11-21T07:04:40.883Z,383.04
2018-11-21T07:05:41.342Z,403.20
2018-11-21T07:06:41.953Z,420.48
2018-11-21T07:07:42.570Z,429.12
2018-11-21T07:08:43.020Z,452.16
2018-11-21T07:09:43.375Z,469.44
2018-11-21T07:10:43.881Z,483.84
2018-11-21T07:11:44.473Z,498.24
2018-11-21T07:12:44.844Z,506.88
2018-11-21T07:13:45.263Z,509.76
2018-11-21T07:14:45.659Z,512.64
2018-11-21T07:15:46.054Z,521.28
2018-11-21T07:16:46.479Z,544.32
2018-11-21T07:17:46.973Z,555.84
2018-11-21T07:18:47.349Z,587.52
2018-11-21T07:19:47.789Z,633.60
2018-11-21T07:20:48.180Z,708.48
2018-11-21T07:21:48.810Z,771.84
2018-11-21T07:22:49.507Z,823.68
2018-11-21T07:23:49.914Z,921.60
2018-11-21T07:24:50.525Z,1077.12
2018-11-21T07:25:51.088Z,1244.16
2018-11-21T07:26:51.767Z,1422.72
2018-11-21T07:27:52.219Z,1555.20
2018-11-21T07:28:52.690Z,1555.20
2018-11-21T07:29:53.164Z,1601.28
2018-11-21T07:30:53.541Z,1762.56
2018-11-21T07:31:53.975Z,1877.76
2018-11-21T07:32:54.497Z,2027.52
2018-11-21T07:33:54.914Z,2039.04
2018-11-21T07:34:55.415Z,2223.36
2018-11-21T07:35:55.803Z,2142.72
2018-11-21T07:36:56.300Z,2165.76
2018-11-21T07:37:56.796Z,2200.32
2018-11-21T07:38:57.209Z,2188.80
2018-11-21T07:39:57.707Z,2246.40
2018-11-21T07:40:57.126Z,2177.28
2018-11-21T07:41:58.695Z,2119.68
2018-11-21T07:42:07.093Z,2142.72
2018-11-21T07:43:08.413Z,2154.24
2018-11-21T07:44:08.841Z,2361.60
2018-11-21T07:45:09.269Z,2545.92
2018-11-21T07:46:09.670Z,2787.84
2018-11-21T07:47:10.029Z,3064.32
2018-11-21T07:48:10.519Z,3110.40
2018-11-21T07:49:10.926Z,3133.44
2018-11-21T07:50:11.269Z,3271.68
2018-11-21T07:51:11.489Z,3525.12
2018-11-21T07:52:11.959Z,3479.04
2018-11-21T07:53:12.454Z,3525.12
2018-11-21T07:54:12.880Z,3456.00
2018-11-21T07:55:13.339Z,3525.12
2018-11-21T07:56:13.788Z,3571.20
2018-11-21T07:57:14.146Z,3525.12
2018-11-21T07:58:14.660Z,3732.48
2018-11-21T07:59:15.244Z,3824.64
2018-11-21T08:00:15.653Z,4032.00
2018-11-21T08:01:16.138Z,4055.04
2018-11-21T08:02:16.567Z,4285.44
2018-11-21T08:03:17.117Z,4285.44
2018-11-21T08:04:17.767Z,3985.92
2018-11-21T08:05:18.228Z,3709.44
2018-11-21T08:06:18.604Z,3755.52
2018-11-21T08:07:19.151Z,3847.68
2018-11-21T08:08:19.743Z,3847.68
2018-11-21T08:09:20.300Z,3709.44
2018-11-21T08:10:20.662Z,3801.60
2018-11-21T08:11:21.079Z,3847.68
2018-11-21T08:12:21.526Z,3686.40
2018-11-21T08:13:22.029Z,3663.36
2018-11-21T08:14:22.575Z,3709.44
2018-11-21T08:15:21.989Z,3709.44
2018-11-21T08:16:23.382Z,3456.00
2018-11-21T08:17:24.008Z,3156.48
2018-11-21T08:18:24.446Z,3340.80
2018-11-21T08:19:24.826Z,3456.00
2018-11-21T08:20:25.491Z,3456.00
2018-11-21T08:21:26.202Z,3709.44
2018-11-21T08:22:26.595Z,3663.36
2018-11-21T08:23:27.004Z,3640.32
2018-11-21T08:24:27.649Z,3709.44
2018-11-21T08:25:28.176Z,3686.40
2018-11-21T08:26:28.788Z,3294.72
2018-11-21T08:27:29.315Z,3363.84
2018-11-21T08:28:29.701Z,3409.92
2018-11-21T08:28:38.044Z,3386.88
2018-11-21T08:29:39.429Z,3133.44
2018-11-21T08:30:39.774Z,2972.16
2018-11-21T08:31:39.318Z,2926.08
2018-11-21T08:32:40.600Z,2926.08
2018-11-21T08:33:41.063Z,3041.28
2018-11-21T08:34:41.587Z,3294.72
2018-11-21T08:35:41.909Z,4170.24
2018-11-21T08:36:42.417Z,4608.00
2018-11-21T08:37:42.770Z,5299.20
2018-11-21T08:38:43.150Z,5736.96
2018-11-21T08:39:43.504Z,5184.00
2018-11-21T08:40:44.084Z,4331.52
2018-11-21T08:41:44.926Z,4999.68
2018-11-21T08:42:45.303Z,5114.88
2018-11-21T08:43:45.806Z,5483.52
2018-11-21T08:44:46.303Z,5829.12
2018-11-21T08:45:46.649Z,5621.76
2018-11-21T08:46:46.974Z,5621.76
2018-11-21T08:47:47.276Z,5829.12
2018-11-21T08:48:47.668Z,5736.96
2018-11-21T08:49:48.366Z,5506.56
2018-11-21T08:50:48.812Z,4838.40
2018-11-21T08:51:49.207Z,5368.32
2018-11-21T08:52:49.538Z,5230.08
2018-11-21T08:53:49.931Z,4976.64
2018-11-21T08:54:50.342Z,5253.12
2018-11-21T08:55:50.703Z,5253.12
2018-11-21T08:56:51.463Z,5621.76
2018-11-21T08:57:51.896Z,5875.20
2018-11-21T08:58:52.244Z,5875.20
2018-11-21T08:59:52.752Z,6220.80
2018-11-21T09:00:53.183Z,4953.60
2018-11-21T09:01:53.523Z,5276.16
2018-11-21T09:02:54.276Z,5022.72
2018-11-21T09:03:54.700Z,5552.64
2018-11-21T09:04:55.072Z,5898.24
2018-11-21T09:05:55.374Z,5783.04
2018-11-21T09:06:55.712Z,5160.96
2018-11-21T09:07:56.239Z,3847.68
2018-11-21T09:08:56.643Z,3432.96
2018-11-21T09:09:57.024Z,3041.28
2018-11-21T09:10:57.556Z,2419.20
2018-11-21T09:11:58.010Z,2292.48
2018-11-21T09:12:58.434Z,2177.28
2018-11-21T09:13:59.109Z,2050.56
2018-11-21T09:14:07.555Z,2027.52
2018-11-21T09:15:09.060Z,1866.24
2018-11-21T09:16:09.468Z,2039.04
2018-11-21T09:17:09.796Z,2154.24
2018-11-21T09:18:10.261Z,2108.16
2018-11-21T09:19:10.599Z,2257.92
2018-11-21T09:20:11.084Z,2695.68
2018-11-21T09:21:11.590Z,2903.04
2018-11-21T09:22:11.987Z,2649.60
2018-11-21T09:23:12.357Z,2592.00
2018-11-21T09:24:12.797Z,2856.96
2018-11-21T09:25:13.377Z,3432.96
2018-11-21T09:26:13.996Z,3617.28
2018-11-21T09:27:14.809Z,3594.24
2018-11-21T09:28:15.541Z,3202.56
2018-11-21T09:29:16.027Z,3363.84
2018-11-21T09:30:16.356Z,4124.16
2018-11-21T09:31:16.748Z,4584.96
2018-11-21T09:32:17.143Z,4723.20
2018-11-21T09:33:17.239Z,4907.52
2018-11-21T09:34:17.848Z,4723.20
2018-11-21T09:35:18.283Z,4561.92
2018-11-21T09:36:18.890Z,4423.68
2018-11-21T09:37:19.803Z,4469.76
2018-11-21T09:38:20.604Z,4354.56
2018-11-21T09:39:21.054Z,4216.32
2018-11-21T09:40:21.498Z,4400.64
2018-11-21T09:41:21.916Z,4377.60
2018-11-21T09:42:22.335Z,4930.56
2018-11-21T09:43:22.758Z,5207.04
2018-11-21T09:44:23.202Z,5137.92
2018-11-21T09:45:23.661Z,5299.20
2018-11-21T09:46:24.001Z,5137.92
2018-11-21T09:47:24.466Z,4838.40
2018-11-21T09:48:24.985Z,4930.56
2018-11-21T09:49:25.293Z,5068.80
2018-11-21T09:50:25.680Z,4884.48
2018-11-21T09:51:26.040Z,4746.24
2018-11-21T09:52:26.359Z,4792.32
2018-11-21T09:53:26.861Z,5045.76
2018-11-21T09:54:27.240Z,5068.80
2018-11-21T09:55:27.619Z,4815.36
2018-11-21T09:56:28.285Z,4838.40
2018-11-21T09:56:36.343Z,4861.44
2018-11-21T09:57:37.681Z,4815.36
2018-11-21T09:58:38.591Z,4907.52
2018-11-21T09:59:38.030Z,5068.80
2018-11-21T10:00:39.387Z,5276.16
2018-11-21T10:01:39.778Z,5552.64
2018-11-21T10:02:40.277Z,5368.32
2018-11-21T10:03:40.693Z,5137.92
2018-11-21T10:04:41.085Z,4930.56
2018-11-21T10:05:41.759Z,4953.60
2018-11-21T10:06:42.194Z,4930.56
2018-11-21T10:07:42.933Z,4723.20
2018-11-21T10:08:43.335Z,4930.56
2018-11-21T10:09:43.835Z,5368.32
2018-11-21T10:10:44.093Z,5414.40
2018-11-21T10:11:44.629Z,5575.68
2018-11-21T10:12:45.120Z,5644.80
2018-11-21T10:13:45.703Z,5736.96
2018-11-21T10:14:46.408Z,5852.16
2018-11-21T10:15:46.936Z,5944.32
2018-11-21T10:16:47.694Z,4792.32
2018-11-21T10:17:48.057Z,3479.04
2018-11-21T10:18:48.471Z,3663.36
2018-11-21T10:19:48.865Z,3594.24
2018-11-21T10:20:49.795Z,3755.52
2018-11-21T10:21:50.350Z,3778.56
2018-11-21T10:22:51.100Z,3709.44
2018-11-21T10:23:51.345Z,4677.12
2018-11-21T10:24:50.819Z,5253.12
2018-11-21T10:25:52.290Z,5483.52
2018-11-21T10:26:52.762Z,5713.92
2018-11-21T10:27:53.312Z,5713.92
2018-11-21T10:28:53.742Z,5760.00
2018-11-21T10:29:54.196Z,5667.84
2018-11-21T10:30:54.775Z,5644.80
2018-11-21T10:31:55.336Z,5575.68
2018-11-21T10:32:55.932Z,5276.16
2018-11-21T10:33:56.753Z,5160.96
2018-11-21T10:34:57.209Z,5045.76
2018-11-21T10:35:57.575Z,4631.04
2018-11-21T10:36:58.061Z,4746.24
2018-11-21T10:37:58.619Z,4631.04
2018-11-21T10:38:59.071Z,4792.32
2018-11-21T10:39:58.481Z,5068.80
2018-11-21T10:40:59.799Z,4884.48
2018-11-21T10:42:00.512Z,4838.40
2018-11-21T10:43:00.888Z,4792.32
2018-11-21T10:43:09.225Z,4792.32
2018-11-21T10:44:10.505Z,4976.64
2018-11-21T10:45:10.978Z,5184.00
2018-11-21T10:46:11.447Z,5230.08
2018-11-21T10:47:11.868Z,5345.28
2018-11-21T10:48:12.406Z,5598.72
2018-11-21T10:49:12.792Z,6082.56
2018-11-21T10:50:13.191Z,6174.72
2018-11-21T10:51:14.994Z,6174.72
2018-11-21T10:52:13.405Z,6036.48
2018-11-21T10:53:14.934Z,6128.64
2018-11-21T10:54:15.685Z,6359.04
2018-11-21T10:55:15.238Z,6543.36
2018-11-21T10:56:16.702Z,5944.32
2018-11-21T10:57:17.402Z,5483.52
2018-11-21T10:58:17.925Z,5230.08
2018-11-21T10:59:18.637Z,5253.12
2018-11-21T11:00:19.326Z,5345.28
2018-11-21T11:01:19.788Z,5253.12
2018-11-21T11:02:20.224Z,5299.20
2018-11-21T11:03:20.681Z,5345.28
2018-11-21T11:04:21.517Z,5276.16
2018-11-21T11:05:21.599Z,5160.96
2018-11-21T11:06:22.437Z,5621.76
2018-11-21T11:07:22.463Z,6036.48
2018-11-21T11:08:23.318Z,6128.64
2018-11-21T11:09:23.799Z,5898.24
2018-11-21T11:10:24.180Z,5391.36
2018-11-21T11:11:24.569Z,4907.52
2018-11-21T11:12:25.047Z,4608.00
2018-11-21T11:13:25.839Z,4124.16
2018-11-21T11:14:26.211Z,3824.64
2018-11-21T11:15:26.215Z,3502.08
2018-11-21T11:16:26.547Z,3502.08
2018-11-21T11:17:27.180Z,2615.04
2018-11-21T11:18:27.513Z,2027.52
2018-11-21T11:19:28.068Z,1774.08
2018-11-21T11:20:27.525Z,2661.12
2018-11-21T11:21:28.942Z,3824.64
2018-11-21T11:22:29.268Z,3962.88
2018-11-21T11:23:29.650Z,3962.88
2018-11-21T11:24:30.415Z,3916.80
2018-11-21T11:25:30.874Z,3985.92
2018-11-21T11:26:31.195Z,4055.04
2018-11-21T11:27:31.528Z,3916.80
2018-11-21T11:28:31.924Z,3732.48
2018-11-21T11:28:40.282Z,3686.40
2018-11-21T11:29:41.642Z,3409.92
2018-11-21T11:30:42.447Z,3294.72
2018-11-21T11:31:43.030Z,3133.44
2018-11-21T11:32:43.609Z,2949.12
2018-11-21T11:33:43.996Z,2856.96
2018-11-21T11:34:44.378Z,2822.40
2018-11-21T11:35:44.835Z,2799.36
2018-11-21T11:36:45.268Z,3271.68
2018-11-21T11:37:45.613Z,3801.60
2018-11-21T11:38:45.939Z,4078.08
2018-11-21T11:39:46.397Z,4262.40
2018-11-21T11:40:47.256Z,4262.40
2018-11-21T11:41:47.763Z,4101.12
2018-11-21T11:42:48.257Z,4262.40
2018-11-21T11:43:48.716Z,4331.52
2018-11-21T11:44:49.077Z,4354.56
2018-11-21T11:45:49.602Z,4331.52
2018-11-21T11:46:50.155Z,4032.00
2018-11-21T11:47:50.645Z,3156.48
2018-11-21T11:48:51.134Z,2407.68
2018-11-21T11:49:51.415Z,2096.64
2018-11-21T11:50:51.829Z,1935.36
2018-11-21T11:51:52.256Z,1877.76
2018-11-21T11:52:52.579Z,2223.36
2018-11-21T11:53:53.422Z,2361.60
2018-11-21T11:54:53.715Z,2280.96
2018-11-21T11:55:54.049Z,2373.12
2018-11-21T11:56:54.732Z,2407.68
2018-11-21T11:57:55.175Z,2396.16
2018-11-21T11:58:55.816Z,2165.76
2018-11-21T11:59:56.289Z,2050.56
2018-11-21T12:00:57.475Z,2073.60
2018-11-21T12:01:56.339Z,2165.76
2018-11-21T12:02:57.694Z,2200.32
2018-11-21T12:03:58.098Z,2257.92
2018-11-21T12:04:58.575Z,2419.20
2018-11-21T12:05:59.564Z,2741.76
2018-11-21T12:07:00.089Z,3248.64
2018-11-21T12:08:00.607Z,3801.60
2018-11-21T12:09:00.971Z,4216.32
2018-11-21T12:10:01.286Z,4654.08
2018-11-21T12:11:01.688Z,4769.28
2018-11-21T12:12:05.004Z,4723.20
2018-11-21T12:13:01.464Z,4769.28
2018-11-21T12:14:02.819Z,4838.40
2018-11-21T12:15:03.219Z,4953.60
2018-11-21T12:15:11.623Z,4953.60
2018-11-21T12:16:12.992Z,4907.52
2018-11-21T12:17:13.449Z,4700.16
2018-11-21T12:18:14.017Z,4285.44
2018-11-21T12:19:14.601Z,3755.52
2018-11-21T12:20:14.899Z,3617.28
2018-11-21T12:21:15.427Z,3525.12
2018-11-21T12:22:15.783Z,3709.44
2018-11-21T12:23:16.144Z,4008.96
2018-11-21T12:24:16.874Z,3778.56
2018-11-21T12:25:17.634Z,3386.88
2018-11-21T12:26:18.088Z,3571.20
2018-11-21T12:27:18.512Z,3064.32
2018-11-21T12:28:18.797Z,2661.12
2018-11-21T12:29:19.337Z,2419.20
2018-11-21T12:30:19.791Z,2200.32
2018-11-21T12:31:20.455Z,2050.56
2018-11-21T12:32:20.824Z,2062.08
2018-11-21T12:33:21.190Z,2234.88
2018-11-21T12:34:21.700Z,2246.40
2018-11-21T12:35:22.152Z,1992.96
2018-11-21T12:36:22.408Z,1889.28